PAYA/YAK METAR and TAF weather

Enter ICAO airport designator
Station Type Date Time Source
PAYA METAR 2018/12/11 18:53 UTC NOAA

PAYA 111853Z AUTO 06004KT 10SM CLR 01/00 A2883 RMK AO2 SLP764 T00110000 TSNO


Station Type Date Time Source
PAYA Decoded METAR 2018/12/11 18:53 UTC NOAA

YAKUTAT AIRPORT, AK, United States (PAYA) 59-30N 139-40W 9M
Dec 11, 2018 - 01:53 PM EST / 2018.12.11 1853 UTC
Wind: from the ENE (060 degrees) at 5 MPH (4 KT):0
Visibility: 10 mile(s):0
Sky conditions: clear
Temperature: 34.0 F (1.1 C)
Windchill: 30 F (-1 C):1
Dew Point: 32.0 F (0.0 C)
Relative Humidity: 92%
Pressure (altimeter): 28.83 in. Hg (976 hPa)
ob: PAYA 111853Z AUTO 06004KT 10SM CLR 01/00 A2883 RMK AO2 SLP764 T00110000 TSNO
cycle: 19

Station Type Date Time Source
PAYA TAF 2018/12/11 18:42 UTC NOAA

TAF PAYA 111740Z 1118/1218 VRB06KT P6SM -SHRA VCTS SCT025 OVC035CB
FM112100 VRB06KT 6SM -SHRASN VCTS SCT025 OVC035CB
FM120100 17007KT 6SM -SHSNRA VCTS BKN025CB OVC035
FM121500 22007KT 5SM -SHSN OVC025 WS020/26025KT
AMD LTD TO CLD VIS AND WIND


Example: see airport list